Hauptseite
METAR-TAF:

METAR-TAF

Flughäfen :

Frankfurt am Main, Deutschland

Flughafen Frankfurt am Main

Breite: 50-03N, Länge: 008-36E, Höhe: 111 m

Beobachtung

Neuester Wetterbericht von vor 12 Minuten, um 09:20 UTC
Wind 6 kt aus Ost/Nordost, variierte zwischen Nord/Nordost und Ost
Temperatur 1°C
Luftfeuchtigkeit 80%
Luftdruck 1026 hPa
Sichtweite 10 km oder mehr
keine Wolken unter 1500 m und keine Kumulonimbus oder Gewitterwolken

METAR: EDDF 030920Z 06006KT 020V100 CAVOK 01/M02 Q1026 NOSIG

Zeit: 10:32 (09:32 UTC)

Prognose

Neuester Wetterbericht von vor 4 Stunden und 32 Minuten, um 05:00 UTC
Gültige Prognose vom 03 um 06 UTC bis 04 um 12 UTC
Wind 6 kt aus Nordost
Sichtweite 10 km oder mehr
keine Wolken unter 1500 m und keine Kumulonimbus oder Gewitterwolken

TAF: EDDF 030500Z 0306/0412 05006KT CAVOK

Wetterbeobachtungen und Prognosen von mehr als 4000 Flughäfen (METAR und TAF Bericht).

Die verfügbaren Stationen werden durch gelbe und rote Markierungen auf der Karte dargestellt.

Führen Sie die Maus auf sie, um den Namen der Station zu sehen.

Darauf klicken, um die Beobachtung von Wetterbeobachtungen und Prognosen zu sehen.

Um die Karte zu ändern : klicken Sie auf den grünen Tasten mit einem schwarzen Kreuz Zum Vergrößern, auf den grünen Button mit einem Gedankenstrich zu verkleinern, oder auf die grünen Pfeile für benachbarte Karten.


METAR-TAF: